createdAt,value
2022-08-11T00:01:14.760Z,6.40
2022-08-11T00:03:48.427Z,7.03
2022-08-11T00:06:24.655Z,7.00
2022-08-11T00:08:56.331Z,9.10
2022-08-11T00:11:35.109Z,7.73
2022-08-11T00:14:05.220Z,10.20
2022-08-11T00:16:34.915Z,8.03
2022-08-11T00:19:04.454Z,7.20
2022-08-11T00:22:04.222Z,7.03
2022-08-11T00:24:53.332Z,8.13
2022-08-11T00:27:32.515Z,8.30
2022-08-11T00:30:01.334Z,9.00
2022-08-11T00:32:31.879Z,8.13
2022-08-11T00:35:54.098Z,9.10
2022-08-11T00:37:53.892Z,7.43
2022-08-11T00:40:29.450Z,7.63
2022-08-11T00:43:05.733Z,8.60
2022-08-11T00:45:43.993Z,8.73
2022-08-11T00:48:29.960Z,7.27
2022-08-11T00:51:14.745Z,6.70
2022-08-11T00:53:53.688Z,7.10
2022-08-11T00:57:36.770Z,7.57
2022-08-11T01:00:15.355Z,5.83
2022-08-11T01:02:58.126Z,6.63
2022-08-11T01:06:18.646Z,6.40
2022-08-11T01:09:21.007Z,6.20
2022-08-11T01:12:30.554Z,6.87
2022-08-11T01:15:35.276Z,6.17
2022-08-11T01:18:43.141Z,7.33
2022-08-11T01:21:37.562Z,6.83
2022-08-11T01:24:41.847Z,10.43
2022-08-11T01:27:48.869Z,6.60
2022-08-11T01:30:58.178Z,6.40
2022-08-11T01:34:08.572Z,6.23
2022-08-11T01:37:03.163Z,7.87
2022-08-11T01:40:06.167Z,5.93
2022-08-11T01:43:19.371Z,6.60
2022-08-11T01:45:54.248Z,7.00
2022-08-11T01:48:35.516Z,6.80
2022-08-11T01:51:16.978Z,6.90
2022-08-11T01:53:56.069Z,6.83
2022-08-11T01:56:48.510Z,7.00
2022-08-11T01:59:21.774Z,6.40
2022-08-11T02:02:46.136Z,6.23
2022-08-11T02:05:46.281Z,7.70
2022-08-11T02:08:32.976Z,7.23
2022-08-11T02:11:35.168Z,7.03
2022-08-11T02:14:22.679Z,9.17
2022-08-11T02:17:16.635Z,5.90
2022-08-11T02:20:11.168Z,6.60
2022-08-11T02:23:07.539Z,6.47
2022-08-11T02:25:42.582Z,6.73
2022-08-11T02:28:23.936Z,8.53
2022-08-11T02:32:24.829Z,5.70
2022-08-11T02:34:21.345Z,6.53
2022-08-11T02:36:57.320Z,6.53
2022-08-11T02:39:33.120Z,5.83
2022-08-11T02:42:35.979Z,6.10
2022-08-11T02:45:31.014Z,6.80
2022-08-11T02:48:24.355Z,6.50
2022-08-11T02:51:05.923Z,6.13
2022-08-11T02:53:50.961Z,6.03
2022-08-11T02:56:44.798Z,6.20
2022-08-11T02:59:46.354Z,6.03
2022-08-11T03:02:41.772Z,6.50
2022-08-11T03:05:25.293Z,5.97
2022-08-11T03:08:18.781Z,6.70
2022-08-11T03:11:15.993Z,6.57
2022-08-11T03:14:10.175Z,5.87
2022-08-11T03:16:48.398Z,5.70
2022-08-11T03:19:25.831Z,7.47
2022-08-11T03:22:06.317Z,7.30
2022-08-11T03:24:59.279Z,7.63
2022-08-11T03:27:40.640Z,7.63
2022-08-11T03:30:17.012Z,7.70
2022-08-11T03:33:17.099Z,5.77
2022-08-11T03:36:00.909Z,6.70
2022-08-11T03:38:45.373Z,5.90
2022-08-11T03:42:02.671Z,6.50
2022-08-11T03:44:41.012Z,6.57
2022-08-11T03:47:55.174Z,6.77
2022-08-11T03:51:06.242Z,7.00
2022-08-11T03:53:53.155Z,7.67
2022-08-11T03:56:50.882Z,7.17
2022-08-11T03:59:58.317Z,8.00
2022-08-11T04:02:50.792Z,6.63
2022-08-11T04:05:43.661Z,6.77
2022-08-11T04:08:53.896Z,7.93
2022-08-11T04:11:50.719Z,7.60
2022-08-11T04:15:02.216Z,9.17
2022-08-11T04:18:05.189Z,7.47
2022-08-11T04:20:59.535Z,7.20
2022-08-11T04:24:34.486Z,8.97
2022-08-11T04:27:36.948Z,10.33
2022-08-11T04:30:12.121Z,8.50
2022-08-11T04:33:15.589Z,6.73
2022-08-11T04:35:54.739Z,8.30
2022-08-11T04:38:43.378Z,12.80
2022-08-11T04:42:02.877Z,9.50
2022-08-11T04:45:13.349Z,11.13
2022-08-11T04:48:24.459Z,8.40
2022-08-11T04:51:38.897Z,6.73
2022-08-11T04:54:43.385Z,7.10
2022-08-11T04:57:38.551Z,7.53
2022-08-11T05:00:27.230Z,7.93
2022-08-11T05:03:31.980Z,8.07
2022-08-11T05:06:32.979Z,8.10
2022-08-11T05:09:30.019Z,9.10
2022-08-11T05:12:21.994Z,8.33
2022-08-11T05:15:11.064Z,11.67
2022-08-11T05:18:14.438Z,12.30
2022-08-11T05:21:06.652Z,8.53
2022-08-11T05:24:00.675Z,8.73
2022-08-11T05:26:49.908Z,11.13
2022-08-11T05:29:54.426Z,8.60
2022-08-11T05:32:42.707Z,11.87
2022-08-11T05:35:18.418Z,8.93
2022-08-11T05:38:39.028Z,8.90
2022-08-11T05:41:30.330Z,7.33
2022-08-11T05:44:21.810Z,7.00
2022-08-11T05:47:09.517Z,6.03
2022-08-11T05:49:57.893Z,6.07
2022-08-11T05:52:46.858Z,5.63
2022-08-11T05:55:35.038Z,8.50
2022-08-11T05:58:07.148Z,6.13
2022-08-11T06:00:44.125Z,6.03
2022-08-11T06:03:13.445Z,5.60
2022-08-11T06:05:44.379Z,4.78
2022-08-11T06:08:15.097Z,4.78
2022-08-11T06:10:45.840Z,4.53
2022-08-11T06:13:18.972Z,5.60
2022-08-11T06:18:37.923Z,5.38
2022-08-11T06:21:12.448Z,4.70
2022-08-11T06:23:42.669Z,5.97
2022-08-11T06:26:11.967Z,4.40
2022-08-11T06:28:45.516Z,5.18
2022-08-11T06:31:16.408Z,5.03
2022-08-11T06:33:57.208Z,6.65
2022-08-11T06:36:34.399Z,4.78
2022-08-11T06:39:19.043Z,3.75
2022-08-11T06:41:53.174Z,4.88
2022-08-11T06:44:32.418Z,5.97
2022-08-11T06:47:09.693Z,3.40
2022-08-11T06:49:58.531Z,4.30
2022-08-11T06:52:44.027Z,4.32
2022-08-11T06:55:57.562Z,3.88
2022-08-11T06:58:44.463Z,4.00
2022-08-11T07:01:19.829Z,4.70
2022-08-11T07:03:58.433Z,3.35
2022-08-11T07:06:50.479Z,3.70
2022-08-11T07:10:14.565Z,5.80
2022-08-11T07:13:45.663Z,7.28
2022-08-11T07:17:28.407Z,3.78
2022-08-11T07:20:36.084Z,3.75
2022-08-11T07:23:25.043Z,3.92
2022-08-11T07:26:12.944Z,3.97
2022-08-11T07:28:59.255Z,4.18
2022-08-11T07:31:32.756Z,3.95
2022-08-11T07:34:17.425Z,4.35
2022-08-11T07:36:52.487Z,4.85
2022-08-11T07:39:23.645Z,4.75
2022-08-11T07:41:54.692Z,4.45
2022-08-11T07:44:30.802Z,3.97
2022-08-11T07:47:19.754Z,4.03
2022-08-11T07:50:08.263Z,4.50
2022-08-11T07:52:40.755Z,4.00
2022-08-11T07:55:13.894Z,3.92
2022-08-11T07:58:16.294Z,4.38
2022-08-11T08:01:10.719Z,4.43
2022-08-11T08:04:04.663Z,4.80
2022-08-11T08:06:52.084Z,4.15
2022-08-11T08:09:40.571Z,3.88
2022-08-11T08:12:27.611Z,5.45
2022-08-11T08:15:15.116Z,4.35
2022-08-11T08:18:20.556Z,4.63
2022-08-11T08:20:50.121Z,3.90
2022-08-11T08:23:33.326Z,4.13
2022-08-11T08:26:26.608Z,3.80
2022-08-11T08:29:16.096Z,3.70
2022-08-11T08:31:45.582Z,3.85
2022-08-11T08:34:15.633Z,3.80
2022-08-11T08:36:45.868Z,3.90
2022-08-11T08:39:16.601Z,3.40
2022-08-11T08:41:48.059Z,3.60
2022-08-11T08:44:37.962Z,3.70
2022-08-11T08:47:09.096Z,3.83
2022-08-11T08:49:41.780Z,4.18
2022-08-11T08:52:26.321Z,3.20
2022-08-11T08:55:05.543Z,3.53
2022-08-11T08:57:38.984Z,3.53
2022-08-11T09:00:13.769Z,3.72
2022-08-11T09:02:44.470Z,3.53
2022-08-11T09:05:13.764Z,3.55
2022-08-11T09:07:43.403Z,3.75
2022-08-11T09:10:12.862Z,3.53
2022-08-11T09:12:43.663Z,4.10
2022-08-11T09:15:15.150Z,3.53
2022-08-11T09:17:51.676Z,4.50
2022-08-11T09:20:23.927Z,3.88
2022-08-11T09:24:08.720Z,3.90
2022-08-11T09:26:20.803Z,3.83
2022-08-11T09:28:53.486Z,3.90
2022-08-11T09:31:23.254Z,3.92
2022-08-11T09:33:55.531Z,3.40
2022-08-11T09:36:42.549Z,4.18
2022-08-11T09:39:31.159Z,4.30
2022-08-11T09:42:04.431Z,4.18
2022-08-11T09:44:50.660Z,4.30
2022-08-11T09:47:24.495Z,4.10
2022-08-11T09:50:00.627Z,4.00
2022-08-11T09:52:33.468Z,4.15
2022-08-11T09:55:11.412Z,4.53
2022-08-11T09:57:58.953Z,3.92
2022-08-11T10:00:32.971Z,4.85
2022-08-11T10:03:02.869Z,4.50
2022-08-11T10:05:49.370Z,4.68
2022-08-11T10:08:19.999Z,4.20
2022-08-11T10:10:49.169Z,7.15
2022-08-11T10:14:30.260Z,5.10
2022-08-11T10:16:15.043Z,5.57
2022-08-11T10:18:49.734Z,4.60
2022-08-11T10:21:28.455Z,4.03
2022-08-11T10:24:15.365Z,4.03
2022-08-11T10:26:58.981Z,4.60
2022-08-11T10:29:51.183Z,8.40
2022-08-11T10:32:57.668Z,4.57
2022-08-11T10:35:29.497Z,5.65
2022-08-11T10:38:15.685Z,4.15
2022-08-11T10:41:10.904Z,4.60
2022-08-11T10:44:01.621Z,4.10
2022-08-11T10:46:48.182Z,4.47
2022-08-11T10:49:18.813Z,4.75
2022-08-11T10:52:06.400Z,3.80
2022-08-11T10:54:53.576Z,3.75
2022-08-11T10:57:40.925Z,4.38
2022-08-11T11:00:14.440Z,4.10
2022-08-11T11:02:43.805Z,4.32
2022-08-11T11:05:17.627Z,4.00
2022-08-11T11:07:56.311Z,4.70
2022-08-11T11:10:26.332Z,4.40
2022-08-11T11:13:16.490Z,4.53
2022-08-11T11:16:05.498Z,5.03
2022-08-11T11:18:37.271Z,4.70
2022-08-11T11:21:15.197Z,5.03
2022-08-11T11:23:52.042Z,4.50
2022-08-11T11:26:33.087Z,4.38
2022-08-11T11:29:30.150Z,3.92
2022-08-11T11:32:17.614Z,5.30
2022-08-11T11:35:19.542Z,3.90
2022-08-11T11:38:03.498Z,4.75
2022-08-11T11:40:33.981Z,4.78
2022-08-11T11:43:02.834Z,4.35
2022-08-11T11:45:31.505Z,4.93
2022-08-11T11:48:01.623Z,4.68
2022-08-11T11:50:34.588Z,4.70
2022-08-11T11:53:07.457Z,6.18
2022-08-11T11:55:37.384Z,5.25
2022-08-11T11:58:24.819Z,4.97
2022-08-11T12:01:12.483Z,4.47
2022-08-11T12:03:41.638Z,5.00
2022-08-11T12:06:12.334Z,4.70
2022-08-11T12:08:43.381Z,4.70
2022-08-11T12:11:31.632Z,4.72
2022-08-11T12:14:01.893Z,5.00
2022-08-11T12:16:35.751Z,4.88
2022-08-11T12:19:08.027Z,4.53
2022-08-11T12:21:38.033Z,4.57
2022-08-11T12:24:28.496Z,4.72
2022-08-11T12:27:17.684Z,4.65
2022-08-11T12:32:38.949Z,4.85
2022-08-11T12:35:09.605Z,4.35
2022-08-11T12:37:41.481Z,4.20
2022-08-11T12:40:42.783Z,4.10
2022-08-11T12:43:41.356Z,4.32
2022-08-11T12:46:12.820Z,4.70
2022-08-11T12:49:04.290Z,4.65
2022-08-11T12:52:11.048Z,4.60
2022-08-11T12:54:51.894Z,3.88
2022-08-11T12:57:50.257Z,3.92
2022-08-11T13:00:38.314Z,3.92
2022-08-11T13:03:27.051Z,3.65
2022-08-11T13:05:58.399Z,3.88
2022-08-11T13:08:29.783Z,3.90
2022-08-11T13:11:19.204Z,4.20
2022-08-11T13:13:57.023Z,4.00
2022-08-11T13:16:29.213Z,3.80
2022-08-11T13:18:58.951Z,4.20
2022-08-11T13:21:28.499Z,3.78
2022-08-11T13:24:01.918Z,4.28
2022-08-11T13:26:47.254Z,3.70
2022-08-11T13:29:24.724Z,3.63
2022-08-11T13:31:58.440Z,3.60
2022-08-11T13:34:29.049Z,6.03
2022-08-11T13:37:00.929Z,3.88
2022-08-11T13:39:32.572Z,3.65
2022-08-11T13:42:03.918Z,3.13
2022-08-11T13:44:37.292Z,3.30
2022-08-11T13:47:09.139Z,3.30
2022-08-11T13:49:40.479Z,3.38
2022-08-11T13:52:13.445Z,4.18
2022-08-11T13:54:43.578Z,3.20
2022-08-11T13:58:09.142Z,3.22
2022-08-11T14:00:24.993Z,3.50
2022-08-11T14:02:58.405Z,3.00
2022-08-11T14:05:29.203Z,3.72
2022-08-11T14:08:02.496Z,2.90
2022-08-11T14:10:35.048Z,2.78
2022-08-11T14:13:42.486Z,3.30
2022-08-11T14:16:23.254Z,3.10
2022-08-11T14:19:01.680Z,4.53
2022-08-11T14:21:55.002Z,2.97
2022-08-11T14:24:24.355Z,3.45
2022-08-11T14:26:54.211Z,4.65
2022-08-11T14:29:24.628Z,3.22
2022-08-11T14:31:57.666Z,3.30
2022-08-11T14:34:30.037Z,3.65
2022-08-11T14:37:04.063Z,3.15
2022-08-11T14:39:36.322Z,3.78
2022-08-11T14:42:25.047Z,3.25
2022-08-11T14:45:18.409Z,3.30
2022-08-11T14:47:52.161Z,3.03
2022-08-11T14:50:24.204Z,3.00
2022-08-11T14:52:55.262Z,3.05
2022-08-11T14:55:44.437Z,3.05
2022-08-11T14:58:16.253Z,3.40
2022-08-11T15:00:46.004Z,3.17
2022-08-11T15:03:16.370Z,3.67
2022-08-11T15:05:56.304Z,3.63
2022-08-11T15:08:47.391Z,3.35
2022-08-11T15:11:35.638Z,2.65
2022-08-11T15:14:06.314Z,3.00
2022-08-11T15:16:53.424Z,2.78
2022-08-11T15:19:23.751Z,3.75
2022-08-11T15:22:10.075Z,3.40
2022-08-11T15:24:39.541Z,3.28
2022-08-11T15:27:31.155Z,4.65
2022-08-11T15:30:32.195Z,3.58
2022-08-11T15:33:25.947Z,3.28
2022-08-11T15:36:15.007Z,3.60
2022-08-11T15:38:55.402Z,3.50
2022-08-11T15:41:58.512Z,2.78
2022-08-11T15:45:03.711Z,3.78
2022-08-11T15:47:41.662Z,3.00
2022-08-11T15:50:16.515Z,2.90
2022-08-11T15:52:53.185Z,3.17
2022-08-11T15:55:24.005Z,5.00
2022-08-11T15:58:13.204Z,5.63
2022-08-11T16:01:04.255Z,3.60
2022-08-11T16:04:09.014Z,3.42
2022-08-11T16:06:47.525Z,4.38
2022-08-11T16:09:24.241Z,4.43
2022-08-11T16:11:55.876Z,5.38
2022-08-11T16:14:43.127Z,5.00
2022-08-11T16:17:13.805Z,4.85
2022-08-11T16:19:45.625Z,5.53
2022-08-11T16:22:16.331Z,5.13
2022-08-11T16:27:05.717Z,5.05
2022-08-11T16:27:42.777Z,6.32
2022-08-11T16:30:13.863Z,6.07
2022-08-11T16:32:48.155Z,6.30
2022-08-11T16:35:36.938Z,5.68
2022-08-11T16:38:24.708Z,5.80
2022-08-11T16:40:56.202Z,6.18
2022-08-11T16:43:43.759Z,6.15
2022-08-11T16:46:32.704Z,6.20
2022-08-11T16:49:02.994Z,6.32
2022-08-11T16:51:32.948Z,6.40
2022-08-11T16:54:05.804Z,6.82
2022-08-11T16:56:40.163Z,6.80
2022-08-11T16:59:15.899Z,6.32
2022-08-11T17:01:47.894Z,6.72
2022-08-11T17:04:39.149Z,7.25
2022-08-11T17:07:41.960Z,7.00
2022-08-11T17:10:52.881Z,8.10
2022-08-11T17:13:33.082Z,8.07
2022-08-11T17:16:12.253Z,7.40
2022-08-11T17:18:50.132Z,8.05
2022-08-11T17:21:22.827Z,8.23
2022-08-11T17:23:55.438Z,8.45
2022-08-11T17:26:49.365Z,8.27
2022-08-11T17:29:22.332Z,9.13
2022-08-11T17:32:09.475Z,8.60
2022-08-11T17:34:58.905Z,8.93
2022-08-11T17:37:30.703Z,9.13
2022-08-11T17:40:01.923Z,9.00
2022-08-11T17:42:52.727Z,9.18
2022-08-11T17:45:41.744Z,9.48
2022-08-11T17:48:27.429Z,9.27
2022-08-11T17:50:59.344Z,8.60
2022-08-11T17:54:17.049Z,9.35
2022-08-11T17:56:55.142Z,9.88
2022-08-11T17:59:48.856Z,17.20
2022-08-11T18:02:38.311Z,13.82
2022-08-11T18:05:12.779Z,14.43
2022-08-11T18:08:01.061Z,12.90
2022-08-11T18:10:50.309Z,12.63
2022-08-11T18:13:38.971Z,18.67
2022-08-11T18:16:26.694Z,13.15
2022-08-11T18:19:15.282Z,12.63
2022-08-11T18:22:12.968Z,12.50
2022-08-11T18:25:06.831Z,11.07
2022-08-11T18:27:54.544Z,13.90
2022-08-11T18:30:41.874Z,13.15
2022-08-11T18:33:56.784Z,15.77
2022-08-11T18:36:42.498Z,17.00
2022-08-11T18:39:31.476Z,12.43
2022-08-11T18:42:29.131Z,11.73
2022-08-11T18:45:20.205Z,12.20
2022-08-11T18:48:11.373Z,11.50
2022-08-11T18:51:29.677Z,10.80
2022-08-11T18:54:10.539Z,12.20
2022-08-11T18:56:56.758Z,12.50
2022-08-11T18:59:45.536Z,12.80
2022-08-11T19:02:33.827Z,11.00
2022-08-11T19:06:32.204Z,11.65
2022-08-11T19:08:47.834Z,16.80
2022-08-11T19:11:36.489Z,12.60
2022-08-11T19:14:30.102Z,11.88
2022-08-11T19:17:44.587Z,13.00
2022-08-11T19:20:30.048Z,13.75
2022-08-11T19:23:16.711Z,16.17
2022-08-11T19:26:03.996Z,14.30
2022-08-11T19:28:53.916Z,16.77
2022-08-11T19:31:44.737Z,13.82
2022-08-11T19:34:34.511Z,20.98
2022-08-11T19:37:24.318Z,14.52
2022-08-11T19:40:12.345Z,14.93
2022-08-11T19:42:59.961Z,15.23
2022-08-11T19:45:52.705Z,13.97
2022-08-11T19:48:40.757Z,13.02
2022-08-11T19:51:28.487Z,13.53
2022-08-11T19:54:15.748Z,12.07
2022-08-11T19:57:02.958Z,13.90
2022-08-11T19:59:51.360Z,13.10
2022-08-11T20:02:42.559Z,12.43
2022-08-11T20:05:29.137Z,14.63
2022-08-11T20:08:18.618Z,12.57
2022-08-11T20:11:07.043Z,14.77
2022-08-11T20:13:56.130Z,14.13
2022-08-11T20:16:43.237Z,14.83
2022-08-11T20:19:55.301Z,17.47
2022-08-11T20:22:39.064Z,13.30
2022-08-11T20:25:27.096Z,13.00
2022-08-11T20:28:14.462Z,14.70
2022-08-11T20:31:02.619Z,12.00
2022-08-11T20:33:49.500Z,14.43
2022-08-11T20:36:36.672Z,11.40
2022-08-11T20:39:24.138Z,11.63
2022-08-11T20:42:11.933Z,11.87
2022-08-11T20:44:59.695Z,11.57
2022-08-11T20:47:59.508Z,10.93
2022-08-11T20:50:48.094Z,10.40
2022-08-11T20:53:39.140Z,10.37
2022-08-11T20:56:28.584Z,10.70
2022-08-11T20:59:18.384Z,9.87
2022-08-11T21:02:09.387Z,10.60
2022-08-11T21:04:57.430Z,10.00
2022-08-11T21:07:57.275Z,8.43
2022-08-11T21:10:51.736Z,7.93
2022-08-11T21:13:41.231Z,8.20
2022-08-11T21:16:32.019Z,9.30
2022-08-11T21:20:00.534Z,8.40
2022-08-11T21:22:35.771Z,8.57
2022-08-11T21:25:26.182Z,11.63
2022-08-11T21:28:17.930Z,9.10
2022-08-11T21:31:04.968Z,7.47
2022-08-11T21:33:51.550Z,8.97
2022-08-11T21:36:40.427Z,7.73
2022-08-11T21:39:28.278Z,11.53
2022-08-11T21:42:15.407Z,7.00
2022-08-11T21:45:06.101Z,8.23
2022-08-11T21:48:00.864Z,9.33
2022-08-11T21:50:47.494Z,6.13
2022-08-11T21:53:34.281Z,6.70
2022-08-11T21:56:21.825Z,6.40
2022-08-11T21:59:12.989Z,8.63
2022-08-11T22:02:00.857Z,7.53
2022-08-11T22:04:49.703Z,6.23
2022-08-11T22:07:39.524Z,5.83
2022-08-11T22:10:41.415Z,6.27
2022-08-11T22:13:30.423Z,7.00
2022-08-11T22:16:17.248Z,5.63
2022-08-11T22:19:06.051Z,10.67
2022-08-11T22:22:01.328Z,6.73
2022-08-11T22:24:51.796Z,10.27
2022-08-11T22:27:38.247Z,11.67
2022-08-11T22:30:25.958Z,6.70
2022-08-11T22:33:15.202Z,6.67
2022-08-11T22:36:05.267Z,9.67
2022-08-11T22:38:53.687Z,8.53
2022-08-11T22:41:40.757Z,8.00
2022-08-11T22:44:26.975Z,5.20
2022-08-11T22:47:14.789Z,5.17
2022-08-11T22:50:07.442Z,5.97
2022-08-11T22:52:57.030Z,5.73
2022-08-11T22:55:44.414Z,6.23
2022-08-11T22:58:32.853Z,6.00
2022-08-11T23:01:19.424Z,5.63
2022-08-11T23:04:06.167Z,5.23
2022-08-11T23:06:53.666Z,5.40
2022-08-11T23:09:43.093Z,6.50
2022-08-11T23:12:31.179Z,6.80
2022-08-11T23:15:19.537Z,9.07
2022-08-11T23:18:06.356Z,6.97
2022-08-11T23:20:55.030Z,6.70
2022-08-11T23:23:43.368Z,6.10
2022-08-11T23:26:31.421Z,5.60
2022-08-11T23:29:18.663Z,6.23
2022-08-11T23:32:05.996Z,6.70
2022-08-11T23:35:04.343Z,6.37
2022-08-11T23:38:03.664Z,6.17
2022-08-11T23:40:49.953Z,6.43
2022-08-11T23:43:41.411Z,7.10
2022-08-11T23:46:27.575Z,7.77
2022-08-11T23:49:17.790Z,6.17
2022-08-11T23:52:04.627Z,6.47
2022-08-11T23:54:52.065Z,5.97
2022-08-11T23:57:38.266Z,6.03
